Main page
METAR-TAF:

METAR-TAF

Airports :

Kalmar Airport

Kalmar, Sweden

latitude: 56-44N, longitude: 016-18E, elevation: 16 m

Current weather observation

The report was made 40 minutes ago, at 02:50 UTC
Wind 4 kt from the West/Northwest
Temperature 11°C
Humidity 100%
Pressure 1016 hPa
Visibility 10 km or more

METAR: ESMQ 240250Z AUTO 30004KT 9999 NCD 11/11 Q1016

Time: 05:30 (03:30 UTC)

Forecast

The report was made 13 hours and 0 minutes ago, at 14:30 UTC
Forecast valid from 23 at 15 UTC to 23 at 19 UTC
Wind 9 kt from the Northwest
Visibility 10 km or more
Scattered clouds at a height of 4000 ft

TAF: ESMQ 231430Z 2315/2319 31009KT 9999 SCT040

Weather observations and forecasts of more than 4000 airports (METAR and TAF reports).

The available stations are represented by yellow and red dots on the map.

Hover mouse over dot to see the name of the station.

Then click to see weather observations and forecasts.

To change the map : click on the green buttons with a black cross to zoom in, on the green button with a dash to zoom out, or on the green arrows for adjacent maps.


METAR-TAF: